sensor_id;sensor_type;location;lat;lon;timestamp;temperature;humidity
69776;DHT22;57049;51.450;-2.516;2022-12-18T00:01:46;-0.76;92.89
69776;DHT22;57049;51.450;-2.516;2022-12-18T00:04:31;-0.82;92.91
69776;DHT22;57049;51.450;-2.516;2022-12-18T00:06:57;-0.85;93.02
69776;DHT22;57049;51.450;-2.516;2022-12-18T00:09:23;-0.79;92.99
69776;DHT22;57049;51.450;-2.516;2022-12-18T00:11:49;-0.79;92.96
69776;DHT22;57049;51.450;-2.516;2022-12-18T00:14:15;-0.72;92.71
69776;DHT22;57049;51.450;-2.516;2022-12-18T00:16:44;-0.66;92.55
69776;DHT22;57049;51.450;-2.516;2022-12-18T00:19:10;-0.61;92.38
69776;DHT22;57049;51.450;-2.516;2022-12-18T00:21:36;-0.72;92.66
69776;DHT22;57049;51.450;-2.516;2022-12-18T00:24:01;-0.70;92.69
69776;DHT22;57049;51.450;-2.516;2022-12-18T00:26:32;-0.70;92.52
69776;DHT22;57049;51.450;-2.516;2022-12-18T00:28:59;-0.65;92.49
69776;DHT22;57049;51.450;-2.516;2022-12-18T00:31:26;-0.61;92.37
69776;DHT22;57049;51.450;-2.516;2022-12-18T00:33:53;-0.56;91.90
69776;DHT22;57049;51.450;-2.516;2022-12-18T00:36:22;-0.62;92.06
69776;DHT22;57049;51.450;-2.516;2022-12-18T00:38:48;-0.66;92.19
69776;DHT22;57049;51.450;-2.516;2022-12-18T00:41:15;-0.72;92.30
69776;DHT22;57049;51.450;-2.516;2022-12-18T00:44:00;-0.65;92.21
69776;DHT22;57049;51.450;-2.516;2022-12-18T00:46:25;-0.69;92.39
69776;DHT22;57049;51.450;-2.516;2022-12-18T00:48:51;-0.68;92.60
69776;DHT22;57049;51.450;-2.516;2022-12-18T00:51:16;-0.59;92.87
69776;DHT22;57049;51.450;-2.516;2022-12-18T00:53:42;-0.51;92.82
69776;DHT22;57049;51.450;-2.516;2022-12-18T00:56:07;-0.38;92.68
69776;DHT22;57049;51.450;-2.516;2022-12-18T00:58:33;-0.28;92.55
69776;DHT22;57049;51.450;-2.516;2022-12-18T01:00:58;-0.21;92.69
69776;DHT22;57049;51.450;-2.516;2022-12-18T01:03:24;-0.14;92.84
69776;DHT22;57049;51.450;-2.516;2022-12-18T01:05:49;-0.07;92.67
69776;DHT22;57049;51.450;-2.516;2022-12-18T01:08:14;-0.19;92.81
69776;DHT22;57049;51.450;-2.516;2022-12-18T01:10:40;-0.22;93.15
69776;DHT22;57049;51.450;-2.516;2022-12-18T01:13:06;-0.22;93.30
69776;DHT22;57049;51.450;-2.516;2022-12-18T01:15:32;-0.26;93.46
69776;DHT22;57049;51.450;-2.516;2022-12-18T01:17:57;-0.24;93.35
69776;DHT22;57049;51.450;-2.516;2022-12-18T01:20:23;-0.32;93.47
69776;DHT22;57049;51.450;-2.516;2022-12-18T01:22:48;-0.44;93.94
69776;DHT22;57049;51.450;-2.516;2022-12-18T01:25:13;-0.58;94.17
69776;DHT22;57049;51.450;-2.516;2022-12-18T01:27:39;-0.72;94.54
69776;DHT22;57049;51.450;-2.516;2022-12-18T01:30:05;-0.83;94.86
69776;DHT22;57049;51.450;-2.516;2022-12-18T01:32:31;-0.86;95.03
69776;DHT22;57049;51.450;-2.516;2022-12-18T01:34:57;-0.93;95.21
69776;DHT22;57049;51.450;-2.516;2022-12-18T01:37:22;-1.03;95.41
69776;DHT22;57049;51.450;-2.516;2022-12-18T01:39:48;-1.10;95.65
69776;DHT22;57049;51.450;-2.516;2022-12-18T01:42:15;-1.10;95.80
69776;DHT22;57049;51.450;-2.516;2022-12-18T01:44:54;-1.27;96.02
69776;DHT22;57049;51.450;-2.516;2022-12-18T01:47:27;-1.23;96.30
69776;DHT22;57049;51.450;-2.516;2022-12-18T01:49:55;-1.14;96.25
69776;DHT22;57049;51.450;-2.516;2022-12-18T01:52:21;-1.21;96.13
69776;DHT22;57049;51.450;-2.516;2022-12-18T01:54:49;-1.21;96.35
69776;DHT22;57049;51.450;-2.516;2022-12-18T01:57:16;-1.21;96.33
69776;DHT22;57049;51.450;-2.516;2022-12-18T01:59:43;-0.87;95.96
69776;DHT22;57049;51.450;-2.516;2022-12-18T02:02:10;-0.85;95.72
69776;DHT22;57049;51.450;-2.516;2022-12-18T02:04:36;-0.80;95.69
69776;DHT22;57049;51.450;-2.516;2022-12-18T02:07:20;-0.52;95.14
69776;DHT22;57049;51.450;-2.516;2022-12-18T02:10:15;-0.44;94.85
69776;DHT22;57049;51.450;-2.516;2022-12-18T02:13:09;-0.24;94.31
69776;DHT22;57049;51.450;-2.516;2022-12-18T02:15:54;-0.04;93.81
69776;DHT22;57049;51.450;-2.516;2022-12-18T02:18:35;-0.04;93.80
69776;DHT22;57049;51.450;-2.516;2022-12-18T02:21:12;-0.14;93.96
69776;DHT22;57049;51.450;-2.516;2022-12-18T02:26:47;-0.21;94.42
69776;DHT22;57049;51.450;-2.516;2022-12-18T02:29:23;-0.24;94.52
69776;DHT22;57049;51.450;-2.516;2022-12-18T02:31:54;-0.22;94.80
69776;DHT22;57049;51.450;-2.516;2022-12-18T02:34:23;-0.28;94.97
69776;DHT22;57049;51.450;-2.516;2022-12-18T02:36:54;-0.17;94.78
69776;DHT22;57049;51.450;-2.516;2022-12-18T02:39:21;-0.15;94.90
69776;DHT22;57049;51.450;-2.516;2022-12-18T02:41:47;-0.24;94.93
69776;DHT22;57049;51.450;-2.516;2022-12-18T02:44:13;-0.14;95.02
69776;DHT22;57049;51.450;-2.516;2022-12-18T02:46:45;-0.11;95.05
69776;DHT22;57049;51.450;-2.516;2022-12-18T02:54:57;-0.32;95.53
69776;DHT22;57049;51.450;-2.516;2022-12-18T03:00:14;-0.17;95.39
69776;DHT22;57049;51.450;-2.516;2022-12-18T03:05:31;0.05;95.24
69776;DHT22;57049;51.450;-2.516;2022-12-18T03:10:29;0.33;94.47
69776;DHT22;57049;51.450;-2.516;2022-12-18T03:13:05;0.64;93.44
69776;DHT22;57049;51.450;-2.516;2022-12-18T03:15:50;0.67;93.34
69776;DHT22;57049;51.450;-2.516;2022-12-18T03:18:26;0.72;93.31
69776;DHT22;57049;51.450;-2.516;2022-12-18T03:20:55;0.68;93.37
69776;DHT22;57049;51.450;-2.516;2022-12-18T03:23:26;0.67;93.26
69776;DHT22;57049;51.450;-2.516;2022-12-18T03:25:55;0.74;93.41
69776;DHT22;57049;51.450;-2.516;2022-12-18T03:28:23;0.67;93.52
69776;DHT22;57049;51.450;-2.516;2022-12-18T03:30:53;0.71;93.50
69776;DHT22;57049;51.450;-2.516;2022-12-18T03:33:34;0.72;93.55
69776;DHT22;57049;51.450;-2.516;2022-12-18T03:36:02;0.74;93.48
69776;DHT22;57049;51.450;-2.516;2022-12-18T03:38:28;0.84;93.34
69776;DHT22;57049;51.450;-2.516;2022-12-18T03:49:33;1.16;92.66
69776;DHT22;57049;51.450;-2.516;2022-12-18T03:52:10;1.18;92.64
69776;DHT22;57049;51.450;-2.516;2022-12-18T03:54:38;1.12;92.97
69776;DHT22;57049;51.450;-2.516;2022-12-18T03:57:11;1.11;93.28
69776;DHT22;57049;51.450;-2.516;2022-12-18T03:59:39;1.05;93.53
69776;DHT22;57049;51.450;-2.516;2022-12-18T04:02:06;1.05;93.62
69776;DHT22;57049;51.450;-2.516;2022-12-18T04:04:34;1.12;93.42
69776;DHT22;57049;51.450;-2.516;2022-12-18T04:07:01;1.22;93.21
69776;DHT22;57049;51.450;-2.516;2022-12-18T04:09:28;1.21;93.20
69776;DHT22;57049;51.450;-2.516;2022-12-18T04:11:55;1.29;93.34
69776;DHT22;57049;51.450;-2.516;2022-12-18T04:14:20;1.33;93.18
69776;DHT22;57049;51.450;-2.516;2022-12-18T04:16:46;1.36;93.30
69776;DHT22;57049;51.450;-2.516;2022-12-18T04:19:11;1.39;93.32
69776;DHT22;57049;51.450;-2.516;2022-12-18T04:21:37;1.46;93.16
69776;DHT22;57049;51.450;-2.516;2022-12-18T04:24:02;1.54;93.07
69776;DHT22;57049;51.450;-2.516;2022-12-18T04:26:28;1.53;93.11
69776;DHT22;57049;51.450;-2.516;2022-12-18T04:28:53;1.67;92.86
69776;DHT22;57049;51.450;-2.516;2022-12-18T04:31:18;1.67;92.90
69776;DHT22;57049;51.450;-2.516;2022-12-18T04:33:44;1.68;92.82
69776;DHT22;57049;51.450;-2.516;2022-12-18T04:36:09;1.68;92.96
69776;DHT22;57049;51.450;-2.516;2022-12-18T04:38:37;1.80;92.58
69776;DHT22;57049;51.450;-2.516;2022-12-18T04:41:03;1.81;92.59
69776;DHT22;57049;51.450;-2.516;2022-12-18T04:43:28;1.83;92.44
69776;DHT22;57049;51.450;-2.516;2022-12-18T04:46:01;1.81;92.27
69776;DHT22;57049;51.450;-2.516;2022-12-18T04:48:27;1.78;92.53
69776;DHT22;57049;51.450;-2.516;2022-12-18T04:50:53;1.77;92.65
69776;DHT22;57049;51.450;-2.516;2022-12-18T04:53:18;1.75;92.63
69776;DHT22;57049;51.450;-2.516;2022-12-18T04:55:43;1.75;92.63
69776;DHT22;57049;51.450;-2.516;2022-12-18T04:58:09;1.73;92.62
69776;DHT22;57049;51.450;-2.516;2022-12-18T05:00:34;1.75;92.68
69776;DHT22;57049;51.450;-2.516;2022-12-18T05:03:01;1.74;92.66
69776;DHT22;57049;51.450;-2.516;2022-12-18T05:05:30;1.73;92.80
69776;DHT22;57049;51.450;-2.516;2022-12-18T05:07:55;1.68;92.84
69776;DHT22;57049;51.450;-2.516;2022-12-18T05:10:21;1.68;92.91
69776;DHT22;57049;51.450;-2.516;2022-12-18T05:12:46;1.73;92.83
69776;DHT22;57049;51.450;-2.516;2022-12-18T05:15:26;1.73;92.82
69776;DHT22;57049;51.450;-2.516;2022-12-18T05:17:52;1.71;92.84
69776;DHT22;57049;51.450;-2.516;2022-12-18T05:20:17;1.70;93.09
69776;DHT22;57049;51.450;-2.516;2022-12-18T05:22:43;1.78;92.70
69776;DHT22;57049;51.450;-2.516;2022-12-18T05:25:09;1.83;92.61
69776;DHT22;57049;51.450;-2.516;2022-12-18T05:27:34;1.84;92.68
69776;DHT22;57049;51.450;-2.516;2022-12-18T05:30:00;1.90;92.58
69776;DHT22;57049;51.450;-2.516;2022-12-18T05:32:25;1.85;92.49
69776;DHT22;57049;51.450;-2.516;2022-12-18T05:34:51;1.94;92.55
69776;DHT22;57049;51.450;-2.516;2022-12-18T05:37:16;1.93;92.52
69776;DHT22;57049;51.450;-2.516;2022-12-18T05:39:42;1.95;92.57
69776;DHT22;57049;51.450;-2.516;2022-12-18T05:42:08;2.00;92.44
69776;DHT22;57049;51.450;-2.516;2022-12-18T05:44:33;1.95;92.72
69776;DHT22;57049;51.450;-2.516;2022-12-18T05:46:59;1.94;92.93
69776;DHT22;57049;51.450;-2.516;2022-12-18T05:49:24;2.00;92.73
69776;DHT22;57049;51.450;-2.516;2022-12-18T05:51:50;2.01;92.91
69776;DHT22;57049;51.450;-2.516;2022-12-18T05:54:15;1.94;93.14
69776;DHT22;57049;51.450;-2.516;2022-12-18T05:56:41;2.03;93.14
69776;DHT22;57049;51.450;-2.516;2022-12-18T05:59:06;2.08;92.93
69776;DHT22;57049;51.450;-2.516;2022-12-18T06:01:32;2.00;93.09
69776;DHT22;57049;51.450;-2.516;2022-12-18T06:03:57;2.13;92.94
69776;DHT22;57049;51.450;-2.516;2022-12-18T06:06:25;2.05;93.11
69776;DHT22;57049;51.450;-2.516;2022-12-18T06:08:52;2.11;92.98
69776;DHT22;57049;51.450;-2.516;2022-12-18T06:11:26;2.15;92.89
69776;DHT22;57049;51.450;-2.516;2022-12-18T06:13:53;2.10;93.06
69776;DHT22;57049;51.450;-2.516;2022-12-18T06:16:19;2.05;93.09
69776;DHT22;57049;51.450;-2.516;2022-12-18T06:18:44;2.01;93.27
69776;DHT22;57049;51.450;-2.516;2022-12-18T06:21:10;2.04;93.27
69776;DHT22;57049;51.450;-2.516;2022-12-18T06:23:35;2.05;93.14
69776;DHT22;57049;51.450;-2.516;2022-12-18T06:26:06;2.03;93.36
69776;DHT22;57049;51.450;-2.516;2022-12-18T06:28:31;1.97;93.38
69776;DHT22;57049;51.450;-2.516;2022-12-18T06:30:57;2.01;93.30
69776;DHT22;57049;51.450;-2.516;2022-12-18T06:33:28;2.00;93.40
69776;DHT22;57049;51.450;-2.516;2022-12-18T06:35:59;2.05;93.47
69776;DHT22;57049;51.450;-2.516;2022-12-18T06:38:25;2.10;93.31
69776;DHT22;57049;51.450;-2.516;2022-12-18T06:40:51;2.08;93.45
69776;DHT22;57049;51.450;-2.516;2022-12-18T06:43:16;2.08;93.51
69776;DHT22;57049;51.450;-2.516;2022-12-18T06:45:42;2.14;93.40
69776;DHT22;57049;51.450;-2.516;2022-12-18T06:48:07;2.22;93.24
69776;DHT22;57049;51.450;-2.516;2022-12-18T06:50:33;2.17;93.40
69776;DHT22;57049;51.450;-2.516;2022-12-18T06:52:59;2.10;93.72
69776;DHT22;57049;51.450;-2.516;2022-12-18T06:55:24;2.08;93.71
69776;DHT22;57049;51.450;-2.516;2022-12-18T06:57:50;2.01;94.19
69776;DHT22;57049;51.450;-2.516;2022-12-18T07:00:16;2.03;94.11
69776;DHT22;57049;51.450;-2.516;2022-12-18T07:02:41;2.15;93.58
69776;DHT22;57049;51.450;-2.516;2022-12-18T07:05:07;2.22;93.64
69776;DHT22;57049;51.450;-2.516;2022-12-18T07:07:34;2.25;93.58
69776;DHT22;57049;51.450;-2.516;2022-12-18T07:09:59;2.18;93.59
69776;DHT22;57049;51.450;-2.516;2022-12-18T07:12:26;2.24;93.65
69776;DHT22;57049;51.450;-2.516;2022-12-18T07:14:52;2.22;93.61
69776;DHT22;57049;51.450;-2.516;2022-12-18T07:17:17;2.26;93.34
69776;DHT22;57049;51.450;-2.516;2022-12-18T07:19:43;2.34;93.21
69776;DHT22;57049;51.450;-2.516;2022-12-18T07:22:08;2.29;93.53
69776;DHT22;57049;51.450;-2.516;2022-12-18T07:24:34;2.31;93.36
69776;DHT22;57049;51.450;-2.516;2022-12-18T07:27:00;2.38;92.79
69776;DHT22;57049;51.450;-2.516;2022-12-18T07:29:25;2.41;92.99
69776;DHT22;57049;51.450;-2.516;2022-12-18T07:31:50;2.49;92.67
69776;DHT22;57049;51.450;-2.516;2022-12-18T07:34:16;2.41;92.85
69776;DHT22;57049;51.450;-2.516;2022-12-18T07:36:42;2.52;92.54
69776;DHT22;57049;51.450;-2.516;2022-12-18T07:39:07;2.55;92.32
69776;DHT22;57049;51.450;-2.516;2022-12-18T07:41:33;2.58;92.25
69776;DHT22;57049;51.450;-2.516;2022-12-18T07:43:58;2.58;92.23
69776;DHT22;57049;51.450;-2.516;2022-12-18T07:46:24;2.55;92.26
69776;DHT22;57049;51.450;-2.516;2022-12-18T07:48:49;2.59;92.11
69776;DHT22;57049;51.450;-2.516;2022-12-18T07:51:15;2.56;92.30
69776;DHT22;57049;51.450;-2.516;2022-12-18T07:53:41;2.59;92.09
69776;DHT22;57049;51.450;-2.516;2022-12-18T07:56:08;2.50;92.40
69776;DHT22;57049;51.450;-2.516;2022-12-18T07:58:35;2.60;92.26
69776;DHT22;57049;51.450;-2.516;2022-12-18T08:03:29;2.52;92.57
69776;DHT22;57049;51.450;-2.516;2022-12-18T08:06:01;2.49;92.58
69776;DHT22;57049;51.450;-2.516;2022-12-18T08:08:28;2.60;92.30
69776;DHT22;57049;51.450;-2.516;2022-12-18T08:10:53;2.60;92.33
69776;DHT22;57049;51.450;-2.516;2022-12-18T08:13:18;2.53;92.61
69776;DHT22;57049;51.450;-2.516;2022-12-18T08:15:44;2.56;92.34
69776;DHT22;57049;51.450;-2.516;2022-12-18T08:18:09;2.52;92.54
69776;DHT22;57049;51.450;-2.516;2022-12-18T08:20:35;2.52;92.82
69776;DHT22;57049;51.450;-2.516;2022-12-18T08:23:00;2.44;93.11
69776;DHT22;57049;51.450;-2.516;2022-12-18T08:25:26;2.45;93.30
69776;DHT22;57049;51.450;-2.516;2022-12-18T08:27:51;2.44;93.67
69776;DHT22;57049;51.450;-2.516;2022-12-18T08:30:17;2.48;93.78
69776;DHT22;57049;51.450;-2.516;2022-12-18T08:32:42;2.46;93.72
69776;DHT22;57049;51.450;-2.516;2022-12-18T08:35:08;2.32;94.17
69776;DHT22;57049;51.450;-2.516;2022-12-18T08:37:34;2.41;94.54
69776;DHT22;57049;51.450;-2.516;2022-12-18T08:39:59;2.36;94.48
69776;DHT22;57049;51.450;-2.516;2022-12-18T08:42:25;2.34;94.51
69776;DHT22;57049;51.450;-2.516;2022-12-18T08:45:09;2.31;95.05
69776;DHT22;57049;51.450;-2.516;2022-12-18T08:47:35;2.34;94.99
69776;DHT22;57049;51.450;-2.516;2022-12-18T08:50:00;2.36;95.27
69776;DHT22;57049;51.450;-2.516;2022-12-18T08:52:26;2.29;95.41
69776;DHT22;57049;51.450;-2.516;2022-12-18T08:54:51;2.36;95.51
69776;DHT22;57049;51.450;-2.516;2022-12-18T08:57:17;2.35;95.43
69776;DHT22;57049;51.450;-2.516;2022-12-18T08:59:42;2.44;95.54
69776;DHT22;57049;51.450;-2.516;2022-12-18T09:02:11;2.44;95.75
69776;DHT22;57049;51.450;-2.516;2022-12-18T09:04:36;2.49;95.47
69776;DHT22;57049;51.450;-2.516;2022-12-18T09:07:02;2.45;95.72
69776;DHT22;57049;51.450;-2.516;2022-12-18T09:09:28;2.48;95.74
69776;DHT22;57049;51.450;-2.516;2022-12-18T09:11:53;2.48;95.93
69776;DHT22;57049;51.450;-2.516;2022-12-18T09:14:18;2.50;95.78
69776;DHT22;57049;51.450;-2.516;2022-12-18T09:16:44;2.48;96.22
69776;DHT22;57049;51.450;-2.516;2022-12-18T09:19:10;2.48;96.35
69776;DHT22;57049;51.450;-2.516;2022-12-18T09:21:37;2.50;95.92
69776;DHT22;57049;51.450;-2.516;2022-12-18T09:24:04;2.50;95.99
69776;DHT22;57049;51.450;-2.516;2022-12-18T09:26:30;2.50;95.94
69776;DHT22;57049;51.450;-2.516;2022-12-18T09:28:56;2.56;96.27
69776;DHT22;57049;51.450;-2.516;2022-12-18T09:31:23;2.48;96.44
69776;DHT22;57049;51.450;-2.516;2022-12-18T09:33:50;2.49;96.55
69776;DHT22;57049;51.450;-2.516;2022-12-18T09:36:16;2.56;96.47
69776;DHT22;57049;51.450;-2.516;2022-12-18T09:38:43;2.53;96.50
69776;DHT22;57049;51.450;-2.516;2022-12-18T09:44:01;2.56;96.72
69776;DHT22;57049;51.450;-2.516;2022-12-18T09:46:32;2.60;96.79
69776;DHT22;57049;51.450;-2.516;2022-12-18T09:49:03;2.63;96.61
69776;DHT22;57049;51.450;-2.516;2022-12-18T09:54:43;2.73;96.63
69776;DHT22;57049;51.450;-2.516;2022-12-18T09:57:20;2.65;96.81
69776;DHT22;57049;51.450;-2.516;2022-12-18T09:59:51;2.65;96.94
69776;DHT22;57049;51.450;-2.516;2022-12-18T10:02:20;2.66;97.18
69776;DHT22;57049;51.450;-2.516;2022-12-18T10:05:05;2.69;97.33
69776;DHT22;57049;51.450;-2.516;2022-12-18T10:10:16;2.76;97.12
69776;DHT22;57049;51.450;-2.516;2022-12-18T10:13:07;2.77;97.29
69776;DHT22;57049;51.450;-2.516;2022-12-18T10:19:10;2.79;97.09
69776;DHT22;57049;51.450;-2.516;2022-12-18T10:21:21;2.79;97.24
69776;DHT22;57049;51.450;-2.516;2022-12-18T10:26:27;2.82;97.38
69776;DHT22;57049;51.450;-2.516;2022-12-18T10:28:53;2.85;97.30
69776;DHT22;57049;51.450;-2.516;2022-12-18T10:31:23;2.90;97.28
69776;DHT22;57049;51.450;-2.516;2022-12-18T10:33:49;2.90;97.20
69776;DHT22;57049;51.450;-2.516;2022-12-18T10:36:15;2.95;97.33
69776;DHT22;57049;51.450;-2.516;2022-12-18T10:38:41;2.95;97.18
69776;DHT22;57049;51.450;-2.516;2022-12-18T10:41:24;2.95;97.39
69776;DHT22;57049;51.450;-2.516;2022-12-18T10:46:36;2.99;97.35
69776;DHT22;57049;51.450;-2.516;2022-12-18T10:49:02;3.01;97.31
69776;DHT22;57049;51.450;-2.516;2022-12-18T10:51:33;3.04;97.39
69776;DHT22;57049;51.450;-2.516;2022-12-18T10:56:31;3.04;97.40
69776;DHT22;57049;51.450;-2.516;2022-12-18T11:01:28;3.10;97.32
69776;DHT22;57049;51.450;-2.516;2022-12-18T11:06:23;3.07;97.63
69776;DHT22;57049;51.450;-2.516;2022-12-18T11:09:19;3.10;97.61
69776;DHT22;57049;51.450;-2.516;2022-12-18T11:11:53;3.11;97.70
69776;DHT22;57049;51.450;-2.516;2022-12-18T11:14:23;3.10;97.80
69776;DHT22;57049;51.450;-2.516;2022-12-18T11:16:51;3.13;97.85
69776;DHT22;57049;51.450;-2.516;2022-12-18T11:19:36;3.17;97.48
69776;DHT22;57049;51.450;-2.516;2022-12-18T11:22:35;3.17;97.75
69776;DHT22;57049;51.450;-2.516;2022-12-18T11:25:18;3.20;97.76
69776;DHT22;57049;51.450;-2.516;2022-12-18T11:28:05;3.17;97.91
69776;DHT22;57049;51.450;-2.516;2022-12-18T11:31:28;3.18;97.98
69776;DHT22;57049;51.450;-2.516;2022-12-18T11:34:13;3.23;98.09
69776;DHT22;57049;51.450;-2.516;2022-12-18T11:36:45;3.23;98.22
69776;DHT22;57049;51.450;-2.516;2022-12-18T11:39:17;3.28;98.30
69776;DHT22;57049;51.450;-2.516;2022-12-18T11:44:48;3.30;98.78
69776;DHT22;57049;51.450;-2.516;2022-12-18T11:47:38;3.28;98.97
69776;DHT22;57049;51.450;-2.516;2022-12-18T11:50:14;3.32;99.05
69776;DHT22;57049;51.450;-2.516;2022-12-18T11:52:41;3.34;99.25
69776;DHT22;57049;51.450;-2.516;2022-12-18T11:55:15;3.35;99.36
69776;DHT22;57049;51.450;-2.516;2022-12-18T12:00:46;3.45;99.68
69776;DHT22;57049;51.450;-2.516;2022-12-18T12:03:27;3.44;99.91
69776;DHT22;57049;51.450;-2.516;2022-12-18T12:16:07;3.62;99.99
69776;DHT22;57049;51.450;-2.516;2022-12-18T12:24:25;3.75;99.99
69776;DHT22;57049;51.450;-2.516;2022-12-18T12:29:46;3.88;99.99
69776;DHT22;57049;51.450;-2.516;2022-12-18T12:37:33;3.88;99.99
69776;DHT22;57049;51.450;-2.516;2022-12-18T12:40:02;4.01;99.99
69776;DHT22;57049;51.450;-2.516;2022-12-18T12:42:35;4.07;99.99
69776;DHT22;57049;51.450;-2.516;2022-12-18T12:45:37;4.12;99.99
69776;DHT22;57049;51.450;-2.516;2022-12-18T12:48:06;4.17;99.99
69776;DHT22;57049;51.450;-2.516;2022-12-18T12:50:34;4.23;99.99
69776;DHT22;57049;51.450;-2.516;2022-12-18T12:53:01;4.23;99.99
69776;DHT22;57049;51.450;-2.516;2022-12-18T12:55:34;4.26;99.99
69776;DHT22;57049;51.450;-2.516;2022-12-18T13:00:27;4.33;99.99
69776;DHT22;57049;51.450;-2.516;2022-12-18T13:06:42;4.37;99.99
69776;DHT22;57049;51.450;-2.516;2022-12-18T13:09:08;4.39;99.99
69776;DHT22;57049;51.450;-2.516;2022-12-18T13:11:46;4.43;99.99
69776;DHT22;57049;51.450;-2.516;2022-12-18T13:14:33;4.46;99.99
69776;DHT22;57049;51.450;-2.516;2022-12-18T13:19:48;4.56;99.99
69776;DHT22;57049;51.450;-2.516;2022-12-18T13:22:22;4.57;99.99
69776;DHT22;57049;51.450;-2.516;2022-12-18T13:24:48;4.61;99.99
69776;DHT22;57049;51.450;-2.516;2022-12-18T13:38:36;4.95;99.99
69776;DHT22;57049;51.450;-2.516;2022-12-18T13:43:46;5.09;99.99
69776;DHT22;57049;51.450;-2.516;2022-12-18T13:46:43;5.18;99.99
69776;DHT22;57049;51.450;-2.516;2022-12-18T13:51:41;5.29;99.99
69776;DHT22;57049;51.450;-2.516;2022-12-18T13:54:30;5.38;99.99
69776;DHT22;57049;51.450;-2.516;2022-12-18T13:56:58;5.45;99.99
69776;DHT22;57049;51.450;-2.516;2022-12-18T13:59:25;5.46;99.99
69776;DHT22;57049;51.450;-2.516;2022-12-18T14:01:55;5.49;99.99
69776;DHT22;57049;51.450;-2.516;2022-12-18T14:04:28;5.57;99.99
69776;DHT22;57049;51.450;-2.516;2022-12-18T14:07:14;5.65;99.99
69776;DHT22;57049;51.450;-2.516;2022-12-18T14:09:43;5.67;99.99
69776;DHT22;57049;51.450;-2.516;2022-12-18T14:12:23;5.73;99.99
69776;DHT22;57049;51.450;-2.516;2022-12-18T14:15:33;5.83;99.99
69776;DHT22;57049;51.450;-2.516;2022-12-18T14:20:45;5.93;99.99
69776;DHT22;57049;51.450;-2.516;2022-12-18T14:23:44;5.98;99.99
69776;DHT22;57049;51.450;-2.516;2022-12-18T14:26:29;6.14;99.99
69776;DHT22;57049;51.450;-2.516;2022-12-18T14:29:00;6.18;99.99
69776;DHT22;57049;51.450;-2.516;2022-12-18T14:31:30;6.22;99.99
69776;DHT22;57049;51.450;-2.516;2022-12-18T14:33:56;6.48;99.99
69776;DHT22;57049;51.450;-2.516;2022-12-18T14:36:24;6.49;99.99
69776;DHT22;57049;51.450;-2.516;2022-12-18T14:38:52;6.72;99.99
69776;DHT22;57049;51.450;-2.516;2022-12-18T14:41:20;6.99;99.99
69776;DHT22;57049;51.450;-2.516;2022-12-18T14:43:48;7.16;99.99
69776;DHT22;57049;51.450;-2.516;2022-12-18T14:48:58;7.35;99.99
69776;DHT22;57049;51.450;-2.516;2022-12-18T14:51:26;7.46;99.99
69776;DHT22;57049;51.450;-2.516;2022-12-18T14:54:01;7.40;99.99
69776;DHT22;57049;51.450;-2.516;2022-12-18T14:56:29;7.41;99.99
69776;DHT22;57049;51.450;-2.516;2022-12-18T14:59:04;7.53;99.99
69776;DHT22;57049;51.450;-2.516;2022-12-18T15:01:34;7.60;99.99
69776;DHT22;57049;51.450;-2.516;2022-12-18T15:04:02;7.64;99.99
69776;DHT22;57049;51.450;-2.516;2022-12-18T15:06:34;7.67;99.99
69776;DHT22;57049;51.450;-2.516;2022-12-18T15:09:04;7.67;99.99
69776;DHT22;57049;51.450;-2.516;2022-12-18T15:14:30;7.71;99.99
69776;DHT22;57049;51.450;-2.516;2022-12-18T15:16:58;7.73;99.99
69776;DHT22;57049;51.450;-2.516;2022-12-18T15:19:38;7.70;99.99
69776;DHT22;57049;51.450;-2.516;2022-12-18T15:22:35;7.74;99.99
69776;DHT22;57049;51.450;-2.516;2022-12-18T15:25:42;7.71;99.99
69776;DHT22;57049;51.450;-2.516;2022-12-18T15:28:26;7.71;99.99
69776;DHT22;57049;51.450;-2.516;2022-12-18T15:33:33;7.79;99.99
69776;DHT22;57049;51.450;-2.516;2022-12-18T15:36:19;7.81;99.99
69776;DHT22;57049;51.450;-2.516;2022-12-18T15:38:53;7.73;99.99
69776;DHT22;57049;51.450;-2.516;2022-12-18T15:41:21;7.77;99.99
69776;DHT22;57049;51.450;-2.516;2022-12-18T15:43:48;7.81;99.99
69776;DHT22;57049;51.450;-2.516;2022-12-18T15:46:16;7.75;99.99
69776;DHT22;57049;51.450;-2.516;2022-12-18T15:48:47;7.81;99.99
69776;DHT22;57049;51.450;-2.516;2022-12-18T15:51:24;7.91;99.99
69776;DHT22;57049;51.450;-2.516;2022-12-18T15:53:53;7.86;99.99
69776;DHT22;57049;51.450;-2.516;2022-12-18T15:56:19;7.88;99.99
69776;DHT22;57049;51.450;-2.516;2022-12-18T15:59:21;7.79;99.99
69776;DHT22;57049;51.450;-2.516;2022-12-18T16:01:48;7.84;99.99
69776;DHT22;57049;51.450;-2.516;2022-12-18T16:04:16;7.94;99.99
69776;DHT22;57049;51.450;-2.516;2022-12-18T16:06:43;7.84;99.99
69776;DHT22;57049;51.450;-2.516;2022-12-18T16:09:08;7.94;99.99
69776;DHT22;57049;51.450;-2.516;2022-12-18T16:11:36;7.88;99.99
69776;DHT22;57049;51.450;-2.516;2022-12-18T16:14:12;7.99;99.99
69776;DHT22;57049;51.450;-2.516;2022-12-18T16:16:40;8.02;99.99
69776;DHT22;57049;51.450;-2.516;2022-12-18T16:19:06;8.07;99.99
69776;DHT22;57049;51.450;-2.516;2022-12-18T16:21:32;8.01;99.99
69776;DHT22;57049;51.450;-2.516;2022-12-18T16:23:58;8.02;99.99
69776;DHT22;57049;51.450;-2.516;2022-12-18T16:26:23;8.03;99.99
69776;DHT22;57049;51.450;-2.516;2022-12-18T16:28:49;7.98;99.99
69776;DHT22;57049;51.450;-2.516;2022-12-18T16:31:14;7.96;99.99
69776;DHT22;57049;51.450;-2.516;2022-12-18T16:33:40;8.07;99.99
69776;DHT22;57049;51.450;-2.516;2022-12-18T16:36:05;8.02;99.99
69776;DHT22;57049;51.450;-2.516;2022-12-18T16:38:31;8.06;99.99
69776;DHT22;57049;51.450;-2.516;2022-12-18T16:40:56;8.12;99.99
69776;DHT22;57049;51.450;-2.516;2022-12-18T16:43:40;8.19;99.99
69776;DHT22;57049;51.450;-2.516;2022-12-18T16:46:06;8.10;99.99
69776;DHT22;57049;51.450;-2.516;2022-12-18T16:48:31;8.12;99.99
69776;DHT22;57049;51.450;-2.516;2022-12-18T16:51:01;8.15;99.99
69776;DHT22;57049;51.450;-2.516;2022-12-18T16:53:27;8.26;99.99
69776;DHT22;57049;51.450;-2.516;2022-12-18T16:55:56;8.33;99.99
69776;DHT22;57049;51.450;-2.516;2022-12-18T16:58:22;8.30;99.99
69776;DHT22;57049;51.450;-2.516;2022-12-18T17:00:47;8.28;99.99
69776;DHT22;57049;51.450;-2.516;2022-12-18T17:03:13;8.26;99.99
69776;DHT22;57049;51.450;-2.516;2022-12-18T17:05:38;8.26;99.99
69776;DHT22;57049;51.450;-2.516;2022-12-18T17:08:04;8.28;99.99
69776;DHT22;57049;51.450;-2.516;2022-12-18T17:10:29;8.32;99.99
69776;DHT22;57049;51.450;-2.516;2022-12-18T17:12:55;8.30;99.99
69776;DHT22;57049;51.450;-2.516;2022-12-18T17:15:21;8.35;99.99
69776;DHT22;57049;51.450;-2.516;2022-12-18T17:17:46;8.37;99.99
69776;DHT22;57049;51.450;-2.516;2022-12-18T17:20:12;8.35;99.99
69776;DHT22;57049;51.450;-2.516;2022-12-18T17:22:37;8.30;99.99
69776;DHT22;57049;51.450;-2.516;2022-12-18T17:25:03;8.40;99.99
69776;DHT22;57049;51.450;-2.516;2022-12-18T17:27:28;8.50;99.99
69776;DHT22;57049;51.450;-2.516;2022-12-18T17:29:54;8.46;99.99
69776;DHT22;57049;51.450;-2.516;2022-12-18T17:32:19;8.64;99.99
69776;DHT22;57049;51.450;-2.516;2022-12-18T17:34:45;8.68;99.99
69776;DHT22;57049;51.450;-2.516;2022-12-18T17:37:19;8.74;99.99
69776;DHT22;57049;51.450;-2.516;2022-12-18T17:39:45;8.90;99.99
69776;DHT22;57049;51.450;-2.516;2022-12-18T17:42:10;9.01;99.99